Time;durP1;ratioP1;P1;durP2;ratioP2;P2;SDS_P1;SDS_P2;PMS_P1;PMS_P2;Temp;Humidity;BMP_temperature;BMP_pressure;BME280_temperature;BME280_humidity;BME280_pressure;Samples;Min_cycle;Max_cycle;Signal;HPM_P1;HPM_P2
2021/07/23 00:00:17;;;;;;;14.00;10.60;;;17.50;99.90;;;;;;5057370;28;20071;-75
2021/07/23 00:02:44;;;;;;;18.13;11.95;;;17.40;99.90;;;;;;5070196;28;20060;-74
2021/07/23 00:05:11;;;;;;;18.75;12.25;;;17.30;99.90;;;;;;5057396;28;20178;-74
2021/07/23 00:07:38;;;;;;;16.17;11.05;;;17.30;99.90;;;;;;5052564;28;20052;-76
2021/07/23 00:10:05;;;;;;;13.77;11.43;;;17.30;99.90;;;;;;5058985;28;20044;-76
2021/07/23 00:12:32;;;;;;;17.40;11.07;;;17.30;99.90;;;;;;5072170;28;20041;-76
2021/07/23 00:15:00;;;;;;;15.93;11.65;;;17.10;99.90;;;;;;5071431;28;20481;-88
2021/07/23 00:17:26;;;;;;;16.98;12.52;;;16.90;99.90;;;;;;5072007;28;20045;-76
2021/07/23 00:19:53;;;;;;;17.77;13.20;;;16.80;99.90;;;;;;5071034;28;20597;-76
2021/07/23 00:22:20;;;;;;;19.50;11.45;;;16.80;99.90;;;;;;5072157;28;20057;-76
2021/07/23 00:24:46;;;;;;;16.92;11.90;;;16.70;99.90;;;;;;5055314;28;20049;-76
2021/07/23 00:27:14;;;;;;;18.13;11.75;;;16.70;99.90;;;;;;5052340;28;20555;-80
2021/07/23 00:29:41;;;;;;;19.00;11.45;;;16.80;99.90;;;;;;5052936;28;20053;-76
2021/07/23 00:32:09;;;;;;;16.73;10.52;;;16.80;99.90;;;;;;5071193;28;20566;-76
2021/07/23 00:34:35;;;;;;;16.05;10.85;;;16.90;99.90;;;;;;5071857;28;20485;-76
2021/07/23 00:37:02;;;;;;;16.98;11.93;;;16.90;99.90;;;;;;5070419;28;20098;-75
2021/07/23 00:39:29;;;;;;;19.88;12.68;;;16.90;99.90;;;;;;5071053;28;20094;-75
2021/07/23 00:41:55;;;;;;;17.98;12.35;;;16.80;99.90;;;;;;5064136;28;20099;-75
2021/07/23 00:44:22;;;;;;;15.57;11.45;;;16.70;99.90;;;;;;5055592;28;20493;-75
2021/07/23 00:46:49;;;;;;;18.55;10.65;;;16.50;99.90;;;;;;5055706;28;20041;-75
2021/07/23 00:49:17;;;;;;;17.30;11.20;;;16.50;99.90;;;;;;5054880;28;20053;-75
2021/07/23 00:51:44;;;;;;;17.98;12.15;;;16.40;99.90;;;;;;5060833;28;20101;-76
2021/07/23 00:54:12;;;;;;;16.10;11.23;;;16.30;99.90;;;;;;5075021;28;20044;-75
2021/07/23 00:56:39;;;;;;;19.80;12.07;;;16.30;99.90;;;;;;5067145;28;20087;-75
2021/07/23 00:59:05;;;;;;;20.83;13.02;;;16.20;99.90;;;;;;5067012;28;20497;-75
2021/07/23 01:01:33;;;;;;;21.30;12.75;;;16.00;99.90;;;;;;5072228;28;20497;-75
2021/07/23 01:04:00;;;;;;;18.85;14.73;;;15.90;99.90;;;;;;5069728;28;20099;-75
2021/07/23 01:06:28;;;;;;;17.48;12.88;;;15.80;99.90;;;;;;5068275;28;20041;-74
2021/07/23 01:08:55;;;;;;;20.52;13.90;;;15.70;99.90;;;;;;5054571;28;20562;-75
2021/07/23 01:11:23;;;;;;;22.60;14.00;;;15.80;99.90;;;;;;5056107;28;20045;-75
2021/07/23 01:13:49;;;;;;;22.48;13.45;;;15.70;99.90;;;;;;5065490;28;20357;-76
2021/07/23 01:16:16;;;;;;;19.80;13.52;;;15.70;99.90;;;;;;5075087;28;20048;-77
2021/07/23 01:18:43;;;;;;;18.13;13.75;;;15.70;99.90;;;;;;5074260;28;20070;-75
2021/07/23 01:21:10;;;;;;;21.58;14.95;;;15.60;99.90;;;;;;5070826;28;20049;-75
2021/07/23 01:23:40;;;;;;;19.80;13.65;;;15.60;99.90;;;;;;5055172;28;20485;-76
2021/07/23 01:26:07;;;;;;;20.60;13.25;;;15.60;99.90;;;;;;5058235;28;20090;-76
2021/07/23 01:28:36;;;;;;;18.30;12.73;;;15.50;99.90;;;;;;5065884;28;20118;-75
2021/07/23 01:31:03;;;;;;;20.98;14.23;;;15.40;99.90;;;;;;5062858;28;20485;-76
2021/07/23 01:33:30;;;;;;;21.38;13.52;;;15.30;99.90;;;;;;5074272;28;20127;-76
2021/07/23 01:35:57;;;;;;;19.05;13.63;;;15.30;99.90;;;;;;5064390;28;20048;-75
2021/07/23 01:38:26;;;;;;;23.45;14.60;;;15.20;99.90;;;;;;5059763;28;20559;-78
2021/07/23 01:40:56;;;;;;;21.00;14.52;;;15.20;99.90;;;;;;5054677;28;20045;-75
2021/07/23 01:43:25;;;;;;;22.20;15.07;;;15.20;99.90;;;;;;5054344;28;20045;-76
2021/07/23 01:45:53;;;;;;;22.38;14.70;;;15.30;99.90;;;;;;5054758;28;20115;-74
2021/07/23 01:48:20;;;;;;;21.27;14.75;;;15.30;99.90;;;;;;5053917;28;20127;-74
2021/07/23 01:50:47;;;;;;;17.77;15.00;;;15.40;99.90;;;;;;5054584;28;20045;-75
2021/07/23 01:53:13;;;;;;;23.08;15.20;;;15.50;99.90;;;;;;5070114;28;20119;-76
2021/07/23 01:55:42;;;;;;;37.97;24.92;;;15.40;99.90;;;;;;5060021;28;20052;-76
2021/07/23 01:58:10;;;;;;;81.97;53.33;;;15.40;99.90;;;;;;5074035;28;20561;-75
2021/07/23 02:00:37;;;;;;;44.97;29.00;;;15.50;99.90;;;;;;5071989;28;20086;-75
2021/07/23 02:03:04;;;;;;;86.57;51.35;;;15.40;99.90;;;;;;5066617;28;20443;-75
2021/07/23 02:05:30;;;;;;;85.53;50.53;;;15.40;99.90;;;;;;5073919;28;20044;-75
2021/07/23 02:07:58;;;;;;;62.10;39.00;;;15.40;99.90;;;;;;5074132;28;20451;-76
2021/07/23 02:10:25;;;;;;;46.63;30.67;;;15.40;99.90;;;;;;5072384;28;20466;-76
2021/07/23 02:12:52;;;;;;;31.15;19.15;;;15.30;99.90;;;;;;5073913;28;20185;-76
2021/07/23 02:15:19;;;;;;;29.63;19.77;;;15.30;99.90;;;;;;5067297;28;20040;-74
2021/07/23 02:17:46;;;;;;;37.45;24.35;;;15.10;99.90;;;;;;5053521;28;20109;-75
2021/07/23 02:20:13;;;;;;;31.13;21.90;;;15.10;99.90;;;;;;5053031;28;20119;-75
2021/07/23 02:22:40;;;;;;;42.05;27.23;;;15.20;99.90;;;;;;5066607;28;20110;-75
2021/07/23 02:25:07;;;;;;;31.10;17.65;;;15.20;99.90;;;;;;5073308;28;20459;-74
2021/07/23 02:27:34;;;;;;;27.92;20.67;;;15.10;99.90;;;;;;5072234;28;20098;-74
2021/07/23 02:30:01;;;;;;;19.40;14.63;;;15.10;99.90;;;;;;5070903;28;20051;-74
2021/07/23 02:32:29;;;;;;;19.08;14.57;;;15.00;99.90;;;;;;5053026;28;20040;-74
2021/07/23 02:34:55;;;;;;;29.73;16.85;;;14.90;99.90;;;;;;5054275;28;20099;-73
2021/07/23 02:37:22;;;;;;;23.42;15.75;;;14.80;99.90;;;;;;5071443;28;20186;-74
2021/07/23 02:39:49;;;;;;;23.33;16.13;;;14.70;99.90;;;;;;5060216;28;20474;-75
2021/07/23 02:42:15;;;;;;;23.98;15.88;;;14.60;99.90;;;;;;5059595;28;20455;-75
2021/07/23 02:44:42;;;;;;;24.25;15.63;;;14.60;99.90;;;;;;5073058;28;20052;-75
2021/07/23 02:47:09;;;;;;;26.00;16.00;;;14.50;99.90;;;;;;5073083;28;20097;-74
2021/07/23 02:49:37;;;;;;;66.03;36.75;;;14.50;99.90;;;;;;5072253;28;20049;-74
2021/07/23 02:52:04;;;;;;;45.75;27.85;;;14.50;99.90;;;;;;5073115;28;20048;-75
2021/07/23 02:54:30;;;;;;;55.00;33.45;;;14.60;99.90;;;;;;5072600;28;20074;-75
2021/07/23 02:56:57;;;;;;;21.27;15.27;;;14.70;99.90;;;;;;5073350;28;20121;-76
2021/07/23 02:59:23;;;;;;;30.35;19.02;;;14.70;99.90;;;;;;5072439;28;20048;-76
2021/07/23 03:01:50;;;;;;;51.45;29.88;;;14.60;99.90;;;;;;5059969;28;20056;-75
2021/07/23 03:04:17;;;;;;;25.27;17.70;;;14.70;99.90;;;;;;5052924;28;20057;-75
2021/07/23 03:06:44;;;;;;;42.65;24.95;;;14.70;99.90;;;;;;5052577;28;20049;-76
2021/07/23 03:09:11;;;;;;;25.95;17.42;;;14.80;99.90;;;;;;5071648;28;20048;-76
2021/07/23 03:11:38;;;;;;;22.55;15.40;;;14.80;99.90;;;;;;5055766;28;20045;-75
2021/07/23 03:14:04;;;;;;;22.98;14.68;;;14.90;99.90;;;;;;5062235;28;20493;-75
2021/07/23 03:16:31;;;;;;;22.77;15.73;;;15.00;99.90;;;;;;5072459;28;20086;-75
2021/07/23 03:18:57;;;;;;;21.90;16.85;;;14.90;99.90;;;;;;5072415;28;20061;-75
2021/07/23 03:21:24;;;;;;;17.80;13.85;;;14.80;99.90;;;;;;5068424;28;20101;-75
2021/07/23 03:23:52;;;;;;;21.95;14.73;;;14.70;99.90;;;;;;5072866;28;20114;-74
2021/07/23 03:26:19;;;;;;;18.80;13.68;;;14.50;99.90;;;;;;5057706;28;20045;-76
2021/07/23 03:28:46;;;;;;;29.73;18.38;;;14.50;99.90;;;;;;5072457;28;20135;-75
2021/07/23 03:31:13;;;;;;;34.05;21.15;;;14.40;99.90;;;;;;5059107;28;20560;-75
2021/07/23 03:33:40;;;;;;;32.38;21.00;;;14.50;99.90;;;;;;5059230;28;20050;-69
2021/07/23 03:36:07;;;;;;;25.88;17.42;;;14.50;99.90;;;;;;5065623;28;20405;-69
2021/07/23 03:38:34;;;;;;;21.50;15.88;;;14.70;99.90;;;;;;5058993;28;20094;-70
2021/07/23 03:41:02;;;;;;;20.98;15.02;;;14.80;99.90;;;;;;5054038;28;20060;-69
2021/07/23 03:43:29;;;;;;;21.65;15.85;;;14.90;99.90;;;;;;5054298;28;20044;-71
2021/07/23 03:45:56;;;;;;;21.00;13.57;;;14.90;99.90;;;;;;5053232;28;20041;-68
2021/07/23 03:48:23;;;;;;;20.40;15.23;;;14.90;99.90;;;;;;5052929;28;20055;-70
2021/07/23 03:50:50;;;;;;;25.30;15.88;;;14.90;99.90;;;;;;5051877;28;20041;-66
2021/07/23 03:53:16;;;;;;;21.95;14.90;;;14.90;99.90;;;;;;5051646;28;20475;-67
2021/07/23 03:55:43;;;;;;;20.45;14.40;;;15.00;99.90;;;;;;5066788;28;20056;-67
2021/07/23 03:58:11;;;;;;;21.58;13.25;;;15.00;99.90;;;;;;5071334;28;20106;-67
2021/07/23 04:00:38;;;;;;;21.15;14.40;;;15.10;99.90;;;;;;5071116;28;20074;-66
2021/07/23 04:03:04;;;;;;;17.33;12.63;;;15.20;99.90;;;;;;5071301;28;20049;-67
2021/07/23 04:05:31;;;;;;;19.45;13.23;;;15.30;99.90;;;;;;5072172;28;20045;-67
2021/07/23 04:07:57;;;;;;;21.95;12.88;;;15.30;99.90;;;;;;5072587;28;20059;-69
2021/07/23 04:10:26;;;;;;;19.63;14.52;;;15.40;99.90;;;;;;5070959;28;20045;-67
2021/07/23 04:12:53;;;;;;;21.45;13.50;;;15.40;99.90;;;;;;5072578;28;20103;-68
2021/07/23 04:15:21;;;;;;;20.30;13.68;;;15.40;99.90;;;;;;5055844;28;20047;-67
2021/07/23 04:17:47;;;;;;;16.88;12.10;;;15.40;99.90;;;;;;5054234;28;20041;-67
2021/07/23 04:20:15;;;;;;;21.02;13.05;;;15.30;99.90;;;;;;5069464;28;20435;-68
2021/07/23 04:22:42;;;;;;;20.90;13.15;;;15.30;99.90;;;;;;5074786;28;20523;-68
2021/07/23 04:25:10;;;;;;;16.27;12.20;;;15.50;99.90;;;;;;5056349;28;20049;-66
2021/07/23 04:27:37;;;;;;;24.65;12.50;;;15.60;99.90;;;;;;5055618;28;20055;-65
2021/07/23 04:30:05;;;;;;;17.35;12.43;;;15.60;99.90;;;;;;5055953;28;20049;-69
2021/07/23 04:32:33;;;;;;;17.00;13.73;;;15.60;99.90;;;;;;5056800;28;20045;-68
2021/07/23 04:35:00;;;;;;;21.65;13.02;;;15.50;99.90;;;;;;5056088;28;20049;-67
2021/07/23 04:37:27;;;;;;;18.85;14.05;;;15.50;99.90;;;;;;5056458;28;20052;-66
2021/07/23 04:39:54;;;;;;;22.00;13.02;;;15.70;99.90;;;;;;5057381;28;20045;-66
2021/07/23 04:42:20;;;;;;;16.33;11.90;;;15.80;99.90;;;;;;5062266;28;20546;-65
2021/07/23 04:44:47;;;;;;;20.85;12.73;;;16.00;99.90;;;;;;5074638;28;20059;-66
2021/07/23 04:47:14;;;;;;;19.23;11.55;;;16.00;99.90;;;;;;5073831;28;20056;-67
2021/07/23 04:49:42;;;;;;;16.55;11.88;;;16.20;99.90;;;;;;5074308;28;20045;-67
2021/07/23 04:52:08;;;;;;;19.08;11.98;;;16.30;99.90;;;;;;5075190;28;20056;-68
2021/07/23 04:54:35;;;;;;;16.48;10.88;;;16.40;99.90;;;;;;5073910;28;20098;-68
2021/07/23 04:57:02;;;;;;;20.42;12.75;;;16.60;99.90;;;;;;5069718;28;20044;-68
2021/07/23 04:59:28;;;;;;;14.60;10.95;;;16.70;99.90;;;;;;5061940;28;20036;-67
2021/07/23 05:01:55;;;;;;;17.83;11.48;;;16.80;99.90;;;;;;5068332;28;20099;-68
2021/07/23 05:04:21;;;;;;;15.38;11.95;;;16.90;99.90;;;;;;5062747;28;20045;-67
2021/07/23 05:06:49;;;;;;;14.02;11.90;;;16.90;99.90;;;;;;5074176;28;20041;-66
2021/07/23 05:09:16;;;;;;;15.32;11.85;;;16.90;99.90;;;;;;5062058;28;20036;-68
2021/07/23 05:11:44;;;;;;;16.55;12.18;;;16.90;99.90;;;;;;5073000;28;20500;-68
2021/07/23 05:14:11;;;;;;;16.95;13.27;;;16.80;99.90;;;;;;5073725;28;20048;-69
2021/07/23 05:16:38;;;;;;;18.50;11.93;;;16.90;99.90;;;;;;5073757;28;20508;-71
2021/07/23 05:19:05;;;;;;;20.30;12.80;;;17.00;99.90;;;;;;5066447;28;20049;-72
2021/07/23 05:21:34;;;;;;;19.67;14.60;;;17.10;99.90;;;;;;5073919;28;20086;-71
2021/07/23 05:24:05;;;;;;;19.75;12.63;;;17.20;99.90;;;;;;5072048;28;20091;-72
2021/07/23 05:26:37;;;;;;;20.38;12.68;;;17.20;99.90;;;;;;5066611;28;20041;-71
2021/07/23 05:29:04;;;;;;;18.30;12.23;;;17.20;99.90;;;;;;5052270;28;20049;-67
2021/07/23 05:31:31;;;;;;;18.10;12.30;;;17.50;99.90;;;;;;5060397;28;20037;-66
2021/07/23 05:33:58;;;;;;;19.58;13.20;;;17.60;99.90;;;;;;5073363;28;20049;-66
2021/07/23 05:36:25;;;;;;;17.83;12.70;;;17.80;99.90;;;;;;5072497;28;20476;-66
2021/07/23 05:38:51;;;;;;;21.33;12.73;;;18.00;99.90;;;;;;5072087;28;20036;-67
2021/07/23 05:41:20;;;;;;;20.90;14.95;;;18.30;99.90;;;;;;5054897;28;20040;-68
2021/07/23 05:43:46;;;;;;;23.23;13.23;;;18.50;99.90;;;;;;5053663;28;20045;-70
2021/07/23 05:46:13;;;;;;;26.27;18.58;;;18.50;99.90;;;;;;5073366;28;20048;-70
2021/07/23 05:48:41;;;;;;;18.80;12.07;;;18.60;99.90;;;;;;5072891;28;20056;-70
2021/07/23 05:51:08;;;;;;;23.98;15.02;;;18.80;99.90;;;;;;5072970;28;20048;-67
2021/07/23 05:53:36;;;;;;;23.70;15.32;;;19.00;99.90;;;;;;5070384;28;21374;-69
2021/07/23 05:56:03;;;;;;;21.08;14.32;;;19.20;99.90;;;;;;5065011;28;20075;-68
2021/07/23 05:58:33;;;;;;;20.10;14.18;;;19.40;99.90;;;;;;5059735;28;20406;-69
2021/07/23 06:01:05;;;;;;;19.65;13.93;;;19.60;99.90;;;;;;5065639;28;20501;-67
2021/07/23 06:03:31;;;;;;;16.67;13.40;;;20.00;99.90;;;;;;5064458;28;20098;-69
2021/07/23 06:05:58;;;;;;;25.73;15.45;;;20.20;99.90;;;;;;5064718;28;20093;-69
2021/07/23 06:08:25;;;;;;;17.60;12.90;;;20.50;99.90;;;;;;5071310;28;20044;-68
2021/07/23 06:10:51;;;;;;;20.95;12.50;;;20.80;99.90;;;;;;5052886;28;20052;-68
2021/07/23 06:13:18;;;;;;;19.13;13.15;;;21.00;99.90;;;;;;5053192;28;20040;-69
2021/07/23 06:15:46;;;;;;;14.90;11.20;;;21.30;99.90;;;;;;5052815;28;20056;-70
2021/07/23 06:18:13;;;;;;;16.50;11.43;;;21.50;99.90;;;;;;5054507;28;20413;-67
2021/07/23 06:20:41;;;;;;;17.70;12.63;;;21.70;99.90;;;;;;5072249;28;20074;-65
2021/07/23 06:23:08;;;;;;;21.08;12.82;;;22.20;99.90;;;;;;5072181;28;20044;-68
2021/07/23 06:25:34;;;;;;;20.65;12.07;;;22.10;99.90;;;;;;5072425;28;20048;-70
2021/07/23 06:28:01;;;;;;;17.83;12.43;;;22.30;99.90;;;;;;5073333;28;20049;-68
2021/07/23 06:30:28;;;;;;;16.63;11.40;;;22.50;99.90;;;;;;5072471;28;20102;-67
2021/07/23 06:32:56;;;;;;;19.40;11.65;;;22.80;99.90;;;;;;5073149;28;20067;-67
2021/07/23 06:35:23;;;;;;;14.65;10.15;;;23.10;99.90;;;;;;5072442;28;20044;-68
2021/07/23 06:37:50;;;;;;;18.63;11.38;;;23.50;99.90;;;;;;5058117;28;20509;-70
2021/07/23 06:40:17;;;;;;;14.88;8.65;;;24.20;99.90;;;;;;5062206;28;20045;-69
2021/07/23 06:42:45;;;;;;;13.80;9.10;;;24.60;99.90;;;;;;5072507;28;20044;-68
2021/07/23 06:45:12;;;;;;;15.35;8.73;;;24.50;99.90;;;;;;5071269;28;20497;-69
2021/07/23 06:47:39;;;;;;;20.92;13.23;;;24.20;99.90;;;;;;5071459;28;20045;-68
2021/07/23 06:50:08;;;;;;;20.27;11.77;;;24.00;99.90;;;;;;5059454;28;20547;-70
2021/07/23 06:52:35;;;;;;;13.43;9.65;;;23.50;99.90;;;;;;5075098;28;20086;-69
2021/07/23 06:55:01;;;;;;;12.25;9.07;;;23.10;99.90;;;;;;5070007;28;20063;-69
2021/07/23 06:57:31;;;;;;;18.80;12.23;;;22.80;99.90;;;;;;5072420;28;20106;-68
2021/07/23 06:59:58;;;;;;;18.35;11.15;;;22.70;99.90;;;;;;5065298;28;20071;-74
2021/07/23 07:02:27;;;;;;;12.05;8.38;;;22.80;99.90;;;;;;5055246;28;20041;-70
2021/07/23 07:04:54;;;;;;;19.42;13.52;;;23.00;99.90;;;;;;5072805;28;20385;-68
2021/07/23 07:07:22;;;;;;;18.83;12.20;;;23.20;99.90;;;;;;5072302;28;20049;-69
2021/07/23 07:09:49;;;;;;;12.57;9.35;;;23.70;99.90;;;;;;5056548;28;20511;-69
2021/07/23 07:12:16;;;;;;;13.70;8.90;;;24.20;99.90;;;;;;5052252;28;20049;-70
2021/07/23 07:14:43;;;;;;;21.05;12.07;;;24.60;99.90;;;;;;5052436;28;20080;-69
2021/07/23 07:17:10;;;;;;;16.15;10.82;;;24.20;99.90;;;;;;5057895;28;20393;-68
2021/07/23 07:19:37;;;;;;;18.23;11.95;;;24.50;99.90;;;;;;5071467;28;20040;-67
2021/07/23 07:22:04;;;;;;;20.73;14.23;;;24.60;99.90;;;;;;5073070;28;20049;-69
2021/07/23 07:24:33;;;;;;;16.98;9.05;;;24.80;99.90;;;;;;5072222;28;20061;-69
2021/07/23 07:27:01;;;;;;;29.38;19.25;;;24.60;99.90;;;;;;5063749;28;20155;-69
2021/07/23 07:29:28;;;;;;;17.33;10.23;;;25.10;99.90;;;;;;5052115;28;20102;-69
2021/07/23 07:31:56;;;;;;;16.48;9.52;;;25.10;99.90;;;;;;5051961;28;20049;-73
2021/07/23 07:34:23;;;;;;;13.00;8.43;;;25.40;99.90;;;;;;5062073;28;20132;-71
2021/07/23 07:36:49;;;;;;;28.02;12.07;;;25.50;99.90;;;;;;5071911;28;20059;-70
2021/07/23 07:39:16;;;;;;;16.63;11.00;;;25.50;99.90;;;;;;5066160;28;20040;-70
2021/07/23 07:41:45;;;;;;;10.38;8.18;;;25.70;99.90;;;;;;5071162;28;20492;-69
2021/07/23 07:44:12;;;;;;;11.25;8.15;;;25.90;99.90;;;;;;5071781;28;20059;-68
2021/07/23 07:46:38;;;;;;;12.70;9.65;;;26.40;98.40;;;;;;5072021;28;20048;-67
2021/07/23 07:49:05;;;;;;;16.75;10.85;;;26.40;96.80;;;;;;5071425;28;20072;-67
2021/07/23 07:51:32;;;;;;;12.85;9.10;;;26.20;95.90;;;;;;5068111;28;20045;-74
2021/07/23 07:53:59;;;;;;;22.92;14.75;;;26.30;95.90;;;;;;5055795;28;20584;-66
2021/07/23 07:56:25;;;;;;;32.25;18.02;;;25.80;96.10;;;;;;5055439;28;20068;-71
2021/07/23 07:58:54;;;;;;;16.38;8.68;;;25.70;96.40;;;;;;5071786;28;20135;-69
2021/07/23 08:01:20;;;;;;;12.13;7.60;;;25.60;97.20;;;;;;5076157;28;20044;-67
2021/07/23 08:03:47;;;;;;;26.17;16.88;;;25.30;98.30;;;;;;5062103;28;20056;-70
2021/07/23 08:06:22;;;;;;;14.43;10.55;;;25.10;97.00;;;;;;5056049;28;20386;-71
2021/07/23 08:08:49;;;;;;;10.63;6.47;;;25.00;98.90;;;;;;5055387;28;20049;-66
2021/07/23 08:11:17;;;;;;;14.55;10.63;;;24.80;99.90;;;;;;5055238;28;20413;-68
2021/07/23 08:13:44;;;;;;;17.88;12.52;;;24.90;99.90;;;;;;5055764;28;20045;-70
2021/07/23 08:16:13;;;;;;;15.38;11.98;;;25.00;99.90;;;;;;5055175;28;20122;-70
2021/07/23 08:18:41;;;;;;;19.23;12.75;;;25.20;99.90;;;;;;5054302;28;20057;-71
2021/07/23 08:21:08;;;;;;;21.17;12.00;;;25.30;99.30;;;;;;5055591;28;20396;-72
2021/07/23 08:23:36;;;;;;;16.55;9.80;;;25.70;99.30;;;;;;5059015;28;20037;-73
2021/07/23 08:26:05;;;;;;;16.48;10.70;;;26.60;97.50;;;;;;5074168;28;20044;-74
2021/07/23 08:28:32;;;;;;;10.90;8.00;;;27.50;94.30;;;;;;5070758;28;20045;-74
2021/07/23 08:30:59;;;;;;;10.75;8.02;;;28.10;91.40;;;;;;5055020;28;20060;-73
2021/07/23 08:33:28;;;;;;;13.55;9.07;;;27.60;92.70;;;;;;5073348;28;20040;-72
2021/07/23 08:35:55;;;;;;;13.45;9.90;;;27.00;91.30;;;;;;5075586;28;20056;-71
2021/07/23 08:38:22;;;;;;;11.85;8.50;;;26.80;93.20;;;;;;5064114;28;20074;-67
2021/07/23 08:40:48;;;;;;;10.35;7.88;;;27.50;94.10;;;;;;5054773;28;20489;-68
2021/07/23 08:43:15;;;;;;;9.20;7.18;;;28.20;93.70;;;;;;5054850;28;20049;-66
2021/07/23 08:45:43;;;;;;;9.10;7.85;;;28.20;90.70;;;;;;5055931;28;20474;-66
2021/07/23 08:48:10;;;;;;;15.38;10.65;;;26.70;91.60;;;;;;5063145;28;20126;-68
2021/07/23 08:50:38;;;;;;;12.35;8.02;;;26.60;94.10;;;;;;5056808;28;20041;-69
2021/07/23 08:53:10;;;;;;;18.67;12.95;;;26.70;95.30;;;;;;5058722;28;20075;-69
2021/07/23 08:55:37;;;;;;;16.95;9.65;;;26.70;93.80;;;;;;5074824;28;20052;-70
2021/07/23 08:58:07;;;;;;;11.68;7.80;;;26.10;95.50;;;;;;5074374;28;20048;-70
2021/07/23 09:00:35;;;;;;;10.93;8.27;;;25.60;94.20;;;;;;5073848;28;20094;-68
2021/07/23 09:03:02;;;;;;;11.38;8.10;;;25.40;96.50;;;;;;5073647;28;20440;-70
2021/07/23 09:05:32;;;;;;;17.95;10.07;;;25.40;96.30;;;;;;5073675;28;20393;-70
2021/07/23 09:08:01;;;;;;;13.57;8.13;;;25.20;96.80;;;;;;5069324;28;20126;-69
2021/07/23 09:10:29;;;;;;;9.80;6.93;;;26.30;95.80;;;;;;5058114;28;20071;-71
2021/07/23 09:12:59;;;;;;;11.55;8.93;;;27.80;95.80;;;;;;5054771;28;20440;-69
2021/07/23 09:15:27;;;;;;;16.75;13.43;;;29.40;90.30;;;;;;5055334;28;20056;-68
2021/07/23 09:17:55;;;;;;;12.70;10.23;;;30.00;80.80;;;;;;5055141;28;20044;-69
2021/07/23 09:20:27;;;;;;;10.63;8.15;;;30.50;79.90;;;;;;5065817;28;20044;-68
2021/07/23 09:22:55;;;;;;;9.82;7.60;;;31.20;76.30;;;;;;5076024;28;20040;-68
2021/07/23 09:25:40;;;;;;;13.70;8.90;;;31.80;72.00;;;;;;5074135;28;20040;-72
2021/07/23 09:28:22;;;;;;;10.55;7.65;;;31.80;67.40;;;;;;5063370;28;20135;-67
2021/07/23 09:30:49;;;;;;;18.55;12.68;;;31.90;69.40;;;;;;5066358;28;20111;-68
2021/07/23 09:33:25;;;;;;;10.52;7.07;;;32.50;67.70;;;;;;5055289;28;20059;-70
2021/07/23 09:35:52;;;;;;;8.88;6.80;;;32.00;66.30;;;;;;5054836;28;20048;-72
2021/07/23 09:38:21;;;;;;;8.10;7.30;;;31.50;65.60;;;;;;5057962;28;20056;-71
2021/07/23 09:40:49;;;;;;;12.75;7.78;;;31.00;66.80;;;;;;5073418;28;20516;-69
2021/07/23 09:43:30;;;;;;;19.98;15.07;;;32.00;68.20;;;;;;5057457;28;20072;-70
2021/07/23 09:46:21;;;;;;;10.43;7.38;;;31.80;64.00;;;;;;5057525;28;20048;-74
2021/07/23 09:48:49;;;;;;;12.27;8.98;;;29.80;64.40;;;;;;5054490;28;20041;-69
2021/07/23 09:51:16;;;;;;;11.93;9.27;;;30.10;72.30;;;;;;5057115;28;20057;-69
2021/07/23 09:53:44;;;;;;;9.15;8.07;;;30.00;66.90;;;;;;5062061;28;20056;-68
2021/07/23 09:56:12;;;;;;;9.48;8.10;;;30.00;66.90;;;;;;5069175;28;20094;-68
2021/07/23 09:58:42;;;;;;;10.60;7.85;;;30.40;66.30;;;;;;5056299;28;20049;-72
2021/07/23 10:01:12;;;;;;;13.75;8.77;;;30.90;66.00;;;;;;5071170;28;20040;-70
2021/07/23 10:03:44;;;;;;;12.13;8.32;;;30.50;62.40;;;;;;5053558;28;20045;-69
2021/07/23 10:06:15;;;;;;;7.07;6.35;;;29.80;68.90;;;;;;5057559;28;20041;-70
2021/07/23 10:08:48;;;;;;;8.63;6.57;;;31.00;66.70;;;;;;5072263;28;20052;-71
2021/07/23 10:11:21;;;;;;;11.07;7.82;;;30.50;67.40;;;;;;5066386;28;20067;-71
2021/07/23 10:13:50;;;;;;;9.60;7.45;;;29.40;70.10;;;;;;5053932;28;20067;-70
2021/07/23 10:16:18;;;;;;;14.20;9.50;;;29.00;71.10;;;;;;5052756;28;20106;-70
2021/07/23 10:18:47;;;;;;;13.40;8.73;;;28.60;71.50;;;;;;5052930;28;20048;-70
2021/07/23 10:21:15;;;;;;;11.93;9.93;;;28.60;75.10;;;;;;5053127;28;20140;-71
2021/07/23 10:23:44;;;;;;;9.57;6.68;;;29.00;73.20;;;;;;5053568;28;20142;-70
2021/07/23 10:26:12;;;;;;;8.82;6.82;;;28.40;73.30;;;;;;5065515;28;20044;-71
2021/07/23 10:28:57;;;;;;;14.38;10.20;;;28.40;71.70;;;;;;5073329;28;20051;-69
2021/07/23 10:31:42;;;;;;;9.75;7.00;;;30.10;71.60;;;;;;5053107;28;20053;-69
2021/07/23 10:34:10;;;;;;;10.18;8.20;;;30.80;65.90;;;;;;5073187;28;20488;-70
2021/07/23 10:36:41;;;;;;;8.65;7.32;;;31.20;63.70;;;;;;5072938;28;20102;-70
2021/07/23 10:39:20;;;;;;;9.15;6.93;;;31.00;62.50;;;;;;5071544;28;20114;-70
2021/07/23 10:42:29;;;;;;;13.40;9.65;;;31.40;60.40;;;;;;5053182;28;20049;-70
2021/07/23 10:44:57;;;;;;;12.68;10.57;;;32.00;60.30;;;;;;5052828;28;20083;-70
2021/07/23 10:47:35;;;;;;;11.07;8.90;;;32.50;59.10;;;;;;5052405;28;20045;-70
2021/07/23 10:50:02;;;;;;;14.43;9.68;;;32.90;63.10;;;;;;5051071;28;20069;-71
2021/07/23 10:52:34;;;;;;;10.20;6.65;;;33.80;60.00;;;;;;5052541;28;20048;-70
2021/07/23 10:55:17;;;;;;;9.35;7.90;;;33.70;58.20;;;;;;5052009;28;20049;-70
2021/07/23 10:57:44;;;;;;;10.07;8.00;;;32.20;60.70;;;;;;5052727;28;20052;-69
2021/07/23 11:00:13;;;;;;;12.88;10.13;;;32.30;62.80;;;;;;5052027;28;20084;-70
2021/07/23 11:02:47;;;;;;;15.48;13.07;;;33.20;58.70;;;;;;5052331;28;20059;-70
2021/07/23 11:05:18;;;;;;;9.25;7.13;;;33.20;58.60;;;;;;5052162;28;20045;-70
2021/07/23 11:07:46;;;;;;;12.45;10.07;;;32.90;57.50;;;;;;5051989;28;20060;-69
2021/07/23 11:10:20;;;;;;;18.63;13.80;;;33.80;58.10;;;;;;5052486;28;20056;-70
2021/07/23 11:12:47;;;;;;;8.52;6.82;;;34.30;55.90;;;;;;5052950;28;20045;-69
2021/07/23 11:15:16;;;;;;;8.63;6.40;;;34.00;55.60;;;;;;5052190;28;20045;-71
2021/07/23 11:17:51;;;;;;;9.75;6.90;;;33.70;56.10;;;;;;5052014;28;20085;-66
2021/07/23 11:20:26;;;;;;;10.35;8.13;;;33.70;55.30;;;;;;5050945;28;20466;-69
2021/07/23 11:22:54;;;;;;;12.18;8.85;;;32.70;57.10;;;;;;5052298;28;20041;-71
2021/07/23 11:25:21;;;;;;;9.23;7.15;;;32.80;58.50;;;;;;5052049;28;20091;-71
2021/07/23 11:27:53;;;;;;;13.02;9.63;;;32.40;57.10;;;;;;5051440;28;20102;-71
2021/07/23 11:30:23;;;;;;;8.90;6.90;;;32.50;57.70;;;;;;5051095;28;20497;-71
2021/07/23 11:32:53;;;;;;;6.95;6.18;;;32.10;55.70;;;;;;5051833;28;20129;-70
2021/07/23 11:35:20;;;;;;;10.70;8.43;;;32.80;54.70;;;;;;5051616;28;20497;-70
2021/07/23 11:37:48;;;;;;;8.98;7.65;;;32.50;56.70;;;;;;5051564;28;20687;-70
2021/07/23 11:40:16;;;;;;;9.00;7.32;;;32.30;57.60;;;;;;5051550;28;20088;-69
2021/07/23 11:42:50;;;;;;;12.20;8.70;;;32.10;58.30;;;;;;5051802;28;20099;-70
2021/07/23 11:45:17;;;;;;;8.05;6.28;;;32.70;57.90;;;;;;5051811;28;20143;-70
2021/07/23 11:47:46;;;;;;;9.13;6.65;;;32.30;56.90;;;;;;5051448;28;20083;-70
2021/07/23 11:50:14;;;;;;;7.03;6.07;;;32.40;56.80;;;;;;5050971;28;20095;-70
2021/07/23 11:52:41;;;;;;;9.07;7.13;;;32.90;56.00;;;;;;5051603;28;20049;-72
2021/07/23 11:55:10;;;;;;;8.57;6.38;;;33.00;55.60;;;;;;5051903;28;20451;-69
2021/07/23 11:57:39;;;;;;;10.88;8.93;;;31.70;56.10;;;;;;5051309;28;20086;-70
2021/07/23 12:00:07;;;;;;;8.13;7.35;;;31.70;63.70;;;;;;5050720;28;20053;-69
2021/07/23 12:02:33;;;;;;;9.45;7.30;;;32.50;61.80;;;;;;5051423;28;20103;-71
2021/07/23 12:05:09;;;;;;;9.70;7.15;;;32.60;57.80;;;;;;5051325;28;20451;-70
2021/07/23 12:07:37;;;;;;;9.10;8.10;;;32.80;58.40;;;;;;5051228;28;20061;-69
2021/07/23 12:10:05;;;;;;;14.48;10.18;;;33.00;56.30;;;;;;5051292;28;20306;-74
2021/07/23 12:12:32;;;;;;;13.45;8.82;;;33.20;56.10;;;;;;5051990;28;20195;-69
2021/07/23 12:15:04;;;;;;;9.52;7.53;;;33.00;56.50;;;;;;5051613;28;20118;-70
2021/07/23 12:17:31;;;;;;;14.55;11.23;;;33.60;56.00;;;;;;5051813;28;20053;-72
2021/07/23 12:19:58;;;;;;;7.75;6.95;;;33.70;56.40;;;;;;5050912;28;20099;-71
2021/07/23 12:22:26;;;;;;;15.88;10.95;;;33.50;55.00;;;;;;5052059;28;20045;-70
2021/07/23 12:24:52;;;;;;;12.32;7.75;;;33.00;55.50;;;;;;5052704;28;20041;-70
2021/07/23 12:27:22;;;;;;;6.53;5.80;;;32.90;56.30;;;;;;5051563;28;20045;-71
2021/07/23 12:29:48;;;;;;;11.20;9.50;;;33.50;56.40;;;;;;5051219;28;20041;-69
2021/07/23 12:32:22;;;;;;;7.50;6.70;;;33.50;56.60;;;;;;5051038;28;20563;-69
2021/07/23 12:34:55;;;;;;;8.63;6.40;;;33.60;54.00;;;;;;5050955;28;20051;-69